Time;durP1;ratioP1;P1;durP2;ratioP2;P2;SDS_P1;SDS_P2;PMS_P1;PMS_P2;Temp;Humidity;BMP_temperature;BMP_pressure;BME280_temperature;BME280_humidity;BME280_pressure;Samples;Min_cycle;Max_cycle;Signal;HPM_P1;HPM_P2
2023/10/15 00:01:50;;;;;;;11.63;7.43;;;22.60;93.10;;;;;;6216479;23;20056;-83
2023/10/15 00:04:16;;;;;;;10.20;7.13;;;22.60;93.10;;;;;;6189785;23;20043;-85
2023/10/15 00:06:42;;;;;;;11.45;6.45;;;22.60;93.10;;;;;;6216360;23;20013;-84
2023/10/15 00:09:08;;;;;;;10.45;7.28;;;22.50;93.10;;;;;;6216664;23;20028;-83
2023/10/15 00:11:34;;;;;;;14.27;7.70;;;22.40;93.10;;;;;;6216851;23;20538;-82
2023/10/15 00:14:03;;;;;;;12.70;7.40;;;22.40;93.10;;;;;;6216831;23;20029;-82
2023/10/15 00:16:29;;;;;;;10.77;7.38;;;22.40;93.10;;;;;;6216043;23;20024;-84
2023/10/15 00:18:55;;;;;;;10.63;7.22;;;22.40;93.20;;;;;;6217212;23;20055;-85
2023/10/15 00:21:21;;;;;;;15.50;8.20;;;22.30;93.20;;;;;;6217005;23;20004;-84
2023/10/15 00:23:47;;;;;;;12.52;7.93;;;22.30;93.20;;;;;;6216329;23;20311;-84
2023/10/15 00:26:14;;;;;;;14.20;7.28;;;22.30;93.20;;;;;;6217064;23;20087;-84
2023/10/15 00:28:40;;;;;;;9.68;7.38;;;22.30;93.20;;;;;;6216447;23;20008;-82
2023/10/15 00:31:11;;;;;;;10.50;7.90;;;22.30;93.20;;;;;;6215674;23;19997;-83
2023/10/15 00:33:42;;;;;;;19.08;7.90;;;22.30;93.20;;;;;;6189255;23;20009;-84
2023/10/15 00:36:12;;;;;;;12.50;8.43;;;22.20;93.20;;;;;;6216186;23;20000;-86
2023/10/15 00:38:38;;;;;;;17.02;8.27;;;22.20;93.20;;;;;;6213430;23;20497;-83
2023/10/15 00:41:10;;;;;;;10.40;7.90;;;22.20;93.20;;;;;;6215795;23;20001;-84
2023/10/15 00:43:36;;;;;;;13.63;8.35;;;22.20;93.20;;;;;;6216580;23;20080;-83
2023/10/15 00:46:13;;;;;;;11.30;8.45;;;22.20;93.20;;;;;;6215899;23;20004;-83
2023/10/15 00:48:39;;;;;;;12.13;8.88;;;22.20;93.20;;;;;;6215900;23;20001;-83
2023/10/15 00:51:11;;;;;;;13.15;8.63;;;22.10;93.20;;;;;;6189799;23;20084;-85
2023/10/15 00:53:47;;;;;;;16.83;9.40;;;22.10;93.30;;;;;;6217724;23;20007;-85
2023/10/15 00:56:13;;;;;;;16.65;9.48;;;22.00;93.30;;;;;;6217074;23;20124;-84
2023/10/15 00:58:53;;;;;;;15.30;10.18;;;22.00;93.60;;;;;;6190012;23;20026;-84
2023/10/15 01:01:33;;;;;;;18.08;10.40;;;22.00;93.40;;;;;;6217232;23;20004;-85
2023/10/15 01:04:00;;;;;;;15.68;9.32;;;22.00;93.40;;;;;;6190120;23;20443;-85
2023/10/15 01:06:35;;;;;;;18.77;11.82;;;21.90;93.40;;;;;;6189352;23;20016;-84
2023/10/15 01:09:09;;;;;;;14.98;10.20;;;21.90;93.50;;;;;;6216030;23;20000;-84
2023/10/15 01:11:58;;;;;;;17.08;11.10;;;21.90;93.50;;;;;;6216287;23;20007;-85
2023/10/15 01:16:55;;;;;;;18.50;12.02;;;21.80;93.50;;;;;;6219132;23;20023;-85
2023/10/15 01:19:31;;;;;;;18.38;12.27;;;21.80;93.60;;;;;;6240133;23;20070;-85
2023/10/15 01:21:58;;;;;;;15.70;10.95;;;21.80;93.50;;;;;;6240516;23;20135;-84
2023/10/15 01:24:33;;;;;;;19.75;12.35;;;21.80;93.50;;;;;;6216277;23;20418;-85
2023/10/15 01:26:59;;;;;;;16.17;11.43;;;21.80;93.50;;;;;;6214309;23;20427;-84
2023/10/15 01:29:27;;;;;;;21.42;12.48;;;21.80;93.60;;;;;;6215830;23;20327;-84
2023/10/15 01:31:58;;;;;;;17.30;13.27;;;21.80;93.60;;;;;;6216947;23;20080;-84
2023/10/15 01:34:25;;;;;;;21.52;13.23;;;21.70;93.70;;;;;;6216413;23;20337;-84
2023/10/15 01:36:51;;;;;;;22.98;15.05;;;21.70;93.60;;;;;;6214020;23;20089;-84
2023/10/15 01:39:22;;;;;;;25.83;15.85;;;21.60;93.70;;;;;;6215507;23;20000;-84
2023/10/15 01:41:50;;;;;;;25.05;17.67;;;21.60;93.70;;;;;;6237388;23;20465;-85
2023/10/15 01:44:19;;;;;;;24.65;17.52;;;21.70;93.80;;;;;;6214539;23;20009;-85
2023/10/15 01:49:32;;;;;;;25.65;17.73;;;21.70;93.70;;;;;;6218257;23;20069;-83
2023/10/15 01:52:29;;;;;;;23.70;16.45;;;21.60;93.80;;;;;;6215550;23;19997;-83
2023/10/15 01:54:45;;;;;;;23.00;16.58;;;21.50;93.80;;;;;;6215737;23;20323;-83
2023/10/15 01:57:15;;;;;;;22.58;16.80;;;21.50;93.90;;;;;;6213265;23;20381;-82
2023/10/15 02:00:03;;;;;;;33.13;18.65;;;21.50;94.00;;;;;;6215234;23;20000;-82
2023/10/15 02:02:29;;;;;;;25.65;17.70;;;21.40;94.00;;;;;;6215203;23;20500;-80
2023/10/15 02:04:57;;;;;;;28.75;19.75;;;21.40;94.00;;;;;;6214072;23;20058;-81
2023/10/15 02:07:24;;;;;;;28.48;19.83;;;21.40;94.10;;;;;;6214126;23;20016;-83
2023/10/15 02:09:53;;;;;;;31.27;19.02;;;21.40;94.10;;;;;;6215379;23;20000;-82
2023/10/15 02:12:19;;;;;;;30.45;19.35;;;21.40;94.10;;;;;;6215873;23;20374;-83
2023/10/15 02:14:47;;;;;;;29.45;20.98;;;21.40;94.20;;;;;;6215111;23;20000;-83
2023/10/15 02:17:19;;;;;;;34.03;20.25;;;21.40;94.20;;;;;;6215883;23;20029;-82
2023/10/15 02:19:47;;;;;;;34.95;19.88;;;21.40;94.10;;;;;;6239683;23;20008;-82
2023/10/15 02:22:13;;;;;;;31.58;21.73;;;21.40;94.20;;;;;;6217092;23;20005;-83
2023/10/15 02:24:46;;;;;;;31.70;19.27;;;21.30;94.20;;;;;;6215884;23;20071;-84
2023/10/15 02:27:24;;;;;;;30.98;21.27;;;21.30;94.30;;;;;;6215856;23;20004;-83
2023/10/15 02:29:51;;;;;;;30.80;19.33;;;21.30;94.40;;;;;;6216208;23;20088;-84
2023/10/15 02:32:21;;;;;;;29.65;19.85;;;21.20;94.40;;;;;;6216515;23;20004;-84
2023/10/15 02:34:50;;;;;;;;;;;21.10;94.50;;;;;;6188974;23;20430;-83
2023/10/15 02:37:23;;;;;;;37.75;24.13;;;21.10;94.60;;;;;;6215127;23;19911;-84
2023/10/15 02:39:52;;;;;;;31.42;20.10;;;21.00;94.70;;;;;;6215187;23;20007;-84
2023/10/15 02:42:30;;;;;;;28.63;20.80;;;21.00;94.70;;;;;;6215540;23;20083;-84
2023/10/15 02:44:59;;;;;;;30.90;21.05;;;21.00;94.80;;;;;;6238537;23;20081;-83
2023/10/15 02:47:28;;;;;;;26.40;18.90;;;20.90;94.80;;;;;;6214998;23;20020;-83
2023/10/15 02:50:03;;;;;;;27.02;18.85;;;20.90;95.10;;;;;;6214546;23;20067;-85
2023/10/15 02:52:42;;;;;;;31.83;20.38;;;20.90;94.80;;;;;;6215093;23;20071;-83
2023/10/15 02:55:11;;;;;;;29.70;18.58;;;20.90;94.90;;;;;;6214814;23;20001;-83
2023/10/15 02:57:42;;;;;;;29.65;19.40;;;20.80;94.90;;;;;;6214387;23;19996;-83
2023/10/15 03:00:28;;;;;;;26.27;18.17;;;20.80;94.90;;;;;;6214417;23;20005;-83
2023/10/15 03:02:58;;;;;;;30.73;18.70;;;20.80;94.90;;;;;;6215414;23;20001;-84
2023/10/15 03:05:38;;;;;;;33.38;21.75;;;20.80;94.90;;;;;;6215772;23;20107;-83
2023/10/15 03:08:04;;;;;;;;;;;20.80;94.90;;;;;;6212750;23;20012;-83
2023/10/15 03:10:44;;;;;;;26.80;17.10;;;20.80;95.00;;;;;;6215296;23;19949;-82
2023/10/15 03:13:14;;;;;;;24.77;18.13;;;20.70;95.00;;;;;;6215207;23;20419;-84
2023/10/15 03:15:48;;;;;;;28.13;19.47;;;20.70;95.00;;;;;;6215272;23;20028;-84
2023/10/15 03:18:15;;;;;;;28.20;19.75;;;20.70;95.10;;;;;;6215230;23;20230;-86
2023/10/15 03:20:48;;;;;;;29.95;19.70;;;20.70;95.10;;;;;;6239001;23;20004;-86
2023/10/15 03:23:16;;;;;;;28.88;21.13;;;20.70;95.10;;;;;;6213367;23;20005;-85
2023/10/15 03:25:42;;;;;;;25.10;18.13;;;20.70;95.20;;;;;;6214757;23;20309;-86
2023/10/15 03:28:11;;;;;;;25.17;18.35;;;20.60;95.20;;;;;;6214782;23;20099;-87
2023/10/15 03:30:44;;;;;;;27.33;19.15;;;20.60;95.20;;;;;;6212893;23;20005;-85
2023/10/15 03:33:11;;;;;;;26.45;19.83;;;20.60;95.20;;;;;;6214865;23;20060;-83
2023/10/15 03:35:39;;;;;;;25.35;18.88;;;20.70;95.20;;;;;;6214924;23;20004;-83
2023/10/15 03:38:07;;;;;;;26.88;19.13;;;20.60;95.20;;;;;;6214880;23;20007;-84
2023/10/15 03:40:46;;;;;;;27.25;19.00;;;20.60;95.20;;;;;;6214408;23;20004;-83
2023/10/15 03:43:15;;;;;;;28.75;19.77;;;20.60;95.20;;;;;;6215017;23;20005;-82
2023/10/15 03:45:51;;;;;;;28.83;20.02;;;20.60;95.30;;;;;;6212971;23;20036;-82
2023/10/15 03:48:21;;;;;;;29.55;19.92;;;20.60;95.30;;;;;;6214552;23;20007;-83
2023/10/15 03:50:57;;;;;;;23.40;17.73;;;20.70;95.30;;;;;;6213611;23;20419;-83
2023/10/15 03:53:32;;;;;;;26.77;17.30;;;20.60;95.40;;;;;;6213248;23;20378;-82
2023/10/15 03:55:58;;;;;;;27.35;17.85;;;20.60;95.40;;;;;;6238606;23;20355;-84
2023/10/15 03:58:25;;;;;;;29.50;19.35;;;20.60;95.40;;;;;;6238513;23;20011;-83
2023/10/15 04:01:02;;;;;;;25.77;19.70;;;20.60;95.50;;;;;;6215195;23;20012;-84
2023/10/15 04:03:28;;;;;;;25.05;17.75;;;20.60;95.50;;;;;;6215594;23;20378;-83
2023/10/15 04:06:00;;;;;;;29.20;18.38;;;20.60;95.50;;;;;;6215478;23;20077;-83
2023/10/15 04:08:27;;;;;;;28.25;19.35;;;20.60;95.50;;;;;;6158912;23;20013;-84
2023/10/15 04:10:57;;;;;;;26.85;19.08;;;20.60;95.60;;;;;;6184669;23;20051;-84
2023/10/15 04:13:26;;;;;;;26.92;19.27;;;20.60;95.60;;;;;;6185529;23;20001;-82
2023/10/15 04:15:55;;;;;;;29.63;19.30;;;20.60;95.50;;;;;;6184723;23;20009;-84
2023/10/15 04:18:25;;;;;;;31.17;19.10;;;20.60;95.50;;;;;;6184533;23;20028;-83
2023/10/15 04:20:52;;;;;;;25.23;18.10;;;20.60;95.50;;;;;;6183919;23;20071;-84
2023/10/15 04:23:36;;;;;;;32.25;22.88;;;20.60;95.40;;;;;;6184948;23;20012;-85
2023/10/15 04:26:11;;;;;;;36.28;24.10;;;20.60;95.60;;;;;;6158169;23;20036;-85
2023/10/15 04:28:38;;;;;;;30.40;20.50;;;20.60;95.50;;;;;;6184803;23;20052;-86
2023/10/15 04:31:12;;;;;;;26.42;19.27;;;20.60;95.50;;;;;;6157641;23;20035;-86
2023/10/15 04:33:41;;;;;;;30.52;20.52;;;20.60;95.50;;;;;;6184014;23;20493;-86
2023/10/15 04:36:09;;;;;;;25.47;19.20;;;20.60;95.50;;;;;;6185565;23;20373;-86
2023/10/15 04:38:36;;;;;;;27.75;21.10;;;20.60;95.50;;;;;;6185283;23;20001;-86
2023/10/15 04:41:03;;;;;;;30.60;21.35;;;20.60;95.40;;;;;;6186629;23;20001;-86
2023/10/15 04:43:37;;;;;;;29.27;20.98;;;20.60;95.40;;;;;;6160769;23;20369;-84
2023/10/15 04:46:07;;;;;;;28.98;20.00;;;20.50;95.50;;;;;;6159479;23;20092;-85
2023/10/15 04:48:36;;;;;;;30.42;20.20;;;20.50;95.60;;;;;;6187573;23;20001;-87
2023/10/15 04:51:29;;;;;;;29.13;21.00;;;20.50;95.60;;;;;;6161066;23;20002;-85
2023/10/15 04:53:52;;;;;;;26.77;18.93;;;20.50;95.60;;;;;;6175007;23;20055;-84
2023/10/15 04:56:17;;;;;;;42.47;29.30;;;20.50;95.60;;;;;;6187133;23;20005;-85
2023/10/15 04:58:43;;;;;;;33.72;22.95;;;20.40;95.60;;;;;;6160243;23;20439;-84
2023/10/15 05:01:09;;;;;;;38.15;26.42;;;20.40;95.80;;;;;;6186263;23;20005;-83
2023/10/15 05:03:39;;;;;;;40.22;27.20;;;20.30;96.00;;;;;;6186843;23;20028;-84
2023/10/15 05:06:10;;;;;;;39.10;26.38;;;20.30;96.00;;;;;;6161121;23;20005;-84
2023/10/15 05:08:37;;;;;;;47.75;30.27;;;20.20;96.20;;;;;;6216407;23;20024;-83
2023/10/15 05:11:04;;;;;;;32.63;23.05;;;20.20;96.10;;;;;;6189270;23;20400;-83
2023/10/15 05:13:31;;;;;;;37.88;25.73;;;20.20;96.20;;;;;;6189491;23;20008;-83
2023/10/15 05:15:57;;;;;;;39.03;27.13;;;20.20;96.20;;;;;;6189446;23;20015;-84
2023/10/15 05:18:23;;;;;;;41.60;30.75;;;20.20;96.20;;;;;;6190018;23;20051;-83
2023/10/15 05:20:50;;;;;;;43.25;30.85;;;20.10;96.50;;;;;;6216454;23;20008;-84
2023/10/15 05:23:16;;;;;;;35.13;22.98;;;20.10;96.80;;;;;;6216176;23;20009;-83
2023/10/15 05:25:42;;;;;;;32.38;22.38;;;20.10;96.70;;;;;;6189475;23;20435;-83
2023/10/15 05:28:09;;;;;;;35.47;24.45;;;20.20;96.60;;;;;;6216275;23;20000;-84
2023/10/15 05:30:35;;;;;;;34.30;24.35;;;20.20;96.60;;;;;;6189441;23;20799;-84
2023/10/15 05:33:01;;;;;;;34.17;21.95;;;20.20;96.60;;;;;;6216102;23;19997;-84
2023/10/15 05:35:29;;;;;;;28.85;21.98;;;20.30;96.60;;;;;;6215580;23;20004;-84
2023/10/15 05:37:55;;;;;;;45.05;30.35;;;20.30;96.60;;;;;;6215986;23;20001;-84
2023/10/15 05:40:24;;;;;;;46.03;31.58;;;20.20;96.70;;;;;;6215669;23;20000;-84
2023/10/15 05:42:51;;;;;;;32.17;22.55;;;20.10;96.90;;;;;;6216415;23;20035;-84
2023/10/15 05:45:18;;;;;;;31.55;21.85;;;20.10;97.00;;;;;;6216039;23;20004;-88
2023/10/15 05:47:44;;;;;;;42.25;29.83;;;20.00;97.10;;;;;;6217221;23;20003;-88
2023/10/15 05:50:12;;;;;;;28.52;20.13;;;20.00;97.20;;;;;;6216304;23;20075;-87
2023/10/15 05:52:39;;;;;;;30.17;21.90;;;20.00;97.20;;;;;;6189681;23;20005;-86
2023/10/15 05:55:06;;;;;;;29.75;21.58;;;20.10;97.00;;;;;;6190652;23;20000;-86
2023/10/15 05:57:33;;;;;;;32.58;21.20;;;20.20;97.00;;;;;;6218158;23;20005;-87
2023/10/15 06:00:17;;;;;;;30.52;21.15;;;20.20;96.90;;;;;;6217946;23;20004;-89
2023/10/15 06:02:43;;;;;;;31.88;20.95;;;20.30;96.80;;;;;;6216201;23;20004;-84
2023/10/15 06:05:11;;;;;;;34.42;21.15;;;20.40;96.70;;;;;;6216104;23;20001;-83
2023/10/15 06:07:37;;;;;;;29.60;19.85;;;20.50;96.70;;;;;;6216078;23;20013;-82
2023/10/15 06:10:03;;;;;;;31.13;21.58;;;20.50;96.60;;;;;;6214755;23;20437;-84
2023/10/15 06:12:29;;;;;;;34.53;21.33;;;20.60;96.60;;;;;;6215747;23;20004;-83
2023/10/15 06:14:55;;;;;;;35.85;21.98;;;20.60;96.60;;;;;;6187890;23;20027;-84
2023/10/15 06:17:20;;;;;;;34.83;22.65;;;20.60;96.60;;;;;;6188685;23;20004;-85
2023/10/15 06:19:47;;;;;;;34.30;21.95;;;20.60;96.50;;;;;;6215144;23;20005;-84
2023/10/15 06:22:13;;;;;;;32.17;21.58;;;20.70;96.50;;;;;;6213933;23;20131;-82
2023/10/15 06:24:38;;;;;;;30.00;19.48;;;20.70;96.50;;;;;;6215974;23;20432;-84
2023/10/15 06:27:04;;;;;;;33.15;22.20;;;20.70;96.50;;;;;;6215377;23;20004;-83
2023/10/15 06:29:30;;;;;;;34.75;23.08;;;20.80;96.50;;;;;;6189544;23;20028;-82
2023/10/15 06:31:55;;;;;;;33.72;21.85;;;20.80;96.40;;;;;;6215765;23;20051;-84
2023/10/15 06:34:22;;;;;;;32.17;20.75;;;20.80;96.30;;;;;;6215120;23;20001;-84
2023/10/15 06:36:47;;;;;;;31.25;21.20;;;20.90;96.40;;;;;;6215246;23;20009;-84
2023/10/15 06:39:14;;;;;;;28.10;19.33;;;20.90;96.30;;;;;;6215601;23;20036;-84
2023/10/15 06:41:40;;;;;;;28.25;19.75;;;20.90;96.20;;;;;;6215559;23;20342;-84
2023/10/15 06:44:08;;;;;;;30.83;21.17;;;21.00;96.30;;;;;;6216047;23;20422;-84
2023/10/15 06:46:34;;;;;;;26.15;18.52;;;21.00;96.20;;;;;;6215373;23;20447;-85
2023/10/15 06:49:00;;;;;;;33.28;21.27;;;21.00;96.20;;;;;;6189189;23;20027;-84
2023/10/15 06:51:26;;;;;;;26.48;18.73;;;21.00;96.20;;;;;;6215396;23;20005;-82
2023/10/15 06:53:51;;;;;;;34.95;24.15;;;21.00;96.20;;;;;;6215151;23;20012;-82
2023/10/15 06:56:17;;;;;;;26.45;19.40;;;21.10;96.10;;;;;;6212434;23;20001;-82
2023/10/15 06:58:43;;;;;;;27.85;18.75;;;21.10;96.10;;;;;;6214051;23;20005;-82
2023/10/15 07:01:10;;;;;;;35.55;24.60;;;21.00;96.20;;;;;;6215186;23;20007;-82
2023/10/15 07:03:36;;;;;;;28.08;18.50;;;21.00;96.20;;;;;;6215332;23;20005;-82
2023/10/15 07:06:02;;;;;;;28.15;18.77;;;21.00;96.20;;;;;;6214187;23;20004;-82
2023/10/15 07:08:28;;;;;;;26.52;18.27;;;21.10;96.20;;;;;;6214833;23;20007;-81
2023/10/15 07:11:04;;;;;;;32.92;21.15;;;21.10;96.10;;;;;;6187566;23;20005;-79
2023/10/15 07:13:30;;;;;;;19.77;15.63;;;21.10;96.10;;;;;;6215585;23;20081;-81
2023/10/15 07:15:56;;;;;;;38.60;27.20;;;21.10;96.10;;;;;;6215125;23;20300;-80
2023/10/15 07:18:22;;;;;;;27.77;19.42;;;21.00;96.10;;;;;;6215244;23;20005;-80
2023/10/15 07:20:48;;;;;;;50.47;29.65;;;20.90;96.30;;;;;;6213271;23;20427;-80
2023/10/15 07:23:14;;;;;;;39.47;27.15;;;20.70;96.60;;;;;;6215223;23;20028;-74
2023/10/15 07:25:42;;;;;;;35.30;24.35;;;20.70;96.80;;;;;;6213996;23;20446;-73
2023/10/15 07:28:10;;;;;;;42.28;27.30;;;20.60;97.00;;;;;;6214482;23;20001;-77
2023/10/15 07:30:36;;;;;;;23.15;17.67;;;20.50;97.20;;;;;;6185142;23;20435;-73
2023/10/15 07:33:02;;;;;;;38.20;26.05;;;20.60;97.30;;;;;;6185087;23;19997;-80
2023/10/15 07:35:30;;;;;;;38.97;28.17;;;20.60;97.20;;;;;;6212977;23;20488;-80
2023/10/15 07:38:02;;;;;;;37.50;27.58;;;20.40;97.30;;;;;;6213981;23;20008;-73
2023/10/15 07:40:28;;;;;;;30.63;20.35;;;20.40;97.40;;;;;;6213172;23;20031;-74
2023/10/15 07:42:59;;;;;;;22.38;16.02;;;20.40;97.60;;;;;;6214520;23;20443;-73
2023/10/15 07:45:30;;;;;;;25.77;19.55;;;20.50;97.50;;;;;;6187025;23;20008;-74
2023/10/15 07:48:01;;;;;;;26.77;18.98;;;20.60;97.20;;;;;;6213983;23;20386;-74
2023/10/15 07:50:29;;;;;;;20.77;15.85;;;20.70;97.00;;;;;;6214766;23;20007;-73
2023/10/15 07:52:55;;;;;;;27.80;21.25;;;20.80;97.00;;;;;;6188280;23;20062;-73
2023/10/15 07:55:26;;;;;;;28.92;21.58;;;20.90;96.60;;;;;;6214937;23;19996;-73
2023/10/15 07:57:52;;;;;;;22.80;16.95;;;20.90;96.40;;;;;;6214936;23;19997;-73
2023/10/15 08:00:25;;;;;;;23.67;16.35;;;20.90;96.40;;;;;;6214402;23;20001;-80
2023/10/15 08:02:52;;;;;;;33.25;19.35;;;20.90;96.40;;;;;;6187627;23;20004;-81
2023/10/15 08:05:20;;;;;;;25.23;18.13;;;21.00;96.20;;;;;;6215297;23;20047;-80
2023/10/15 08:07:48;;;;;;;21.98;15.27;;;20.90;96.20;;;;;;6214628;23;20187;-81
2023/10/15 08:10:14;;;;;;;18.90;12.55;;;20.90;96.10;;;;;;6214601;23;20001;-74
2023/10/15 08:12:41;;;;;;;14.48;10.50;;;20.90;96.30;;;;;;6214743;23;20416;-75
2023/10/15 08:15:08;;;;;;;15.38;11.27;;;20.90;96.20;;;;;;6214983;23;20001;-74
2023/10/15 08:17:34;;;;;;;14.13;10.18;;;21.00;96.20;;;;;;6190441;23;20016;-74
2023/10/15 08:20:00;;;;;;;14.52;10.60;;;21.10;96.10;;;;;;6217181;23;20000;-74
2023/10/15 08:22:28;;;;;;;16.27;9.35;;;21.30;96.20;;;;;;6190613;23;20005;-74
2023/10/15 08:24:55;;;;;;;15.75;9.85;;;21.40;95.90;;;;;;6215436;23;20011;-74
2023/10/15 08:27:21;;;;;;;13.77;10.13;;;21.50;95.70;;;;;;6216618;23;20000;-74
2023/10/15 08:29:47;;;;;;;18.85;12.70;;;21.70;95.50;;;;;;6216787;23;20004;-74
2023/10/15 08:32:18;;;;;;;16.95;11.18;;;21.80;94.90;;;;;;6216037;23;19997;-74
2023/10/15 08:34:44;;;;;;;12.30;8.93;;;21.80;94.90;;;;;;6215381;23;20032;-74
2023/10/15 08:37:10;;;;;;;12.35;9.23;;;21.80;95.00;;;;;;6216288;23;20024;-74
2023/10/15 08:39:38;;;;;;;17.00;11.88;;;21.80;95.00;;;;;;6215927;23;20063;-75
2023/10/15 08:42:11;;;;;;;15.43;11.50;;;21.80;94.90;;;;;;6215301;23;20012;-75
2023/10/15 08:44:39;;;;;;;15.63;11.43;;;21.80;95.00;;;;;;6214335;23;20027;-75
2023/10/15 08:47:09;;;;;;;12.85;9.57;;;21.80;95.00;;;;;;6214983;23;20461;-74
2023/10/15 08:49:39;;;;;;;17.35;10.57;;;21.80;95.10;;;;;;6215530;23;19996;-75
2023/10/15 08:52:06;;;;;;;;;;;21.80;95.10;;;;;;6215887;23;20435;-74
2023/10/15 08:54:38;;;;;;;10.10;7.20;;;21.90;94.90;;;;;;6215358;23;19903;-75
2023/10/15 08:57:07;;;;;;;12.60;7.82;;;22.10;94.90;;;;;;6216304;23;20028;-74
2023/10/15 08:59:34;;;;;;;10.95;7.88;;;22.30;94.90;;;;;;6189520;23;20032;-75
2023/10/15 09:02:02;;;;;;;15.32;9.13;;;22.50;94.50;;;;;;6215858;23;20075;-75
2023/10/15 09:04:28;;;;;;;16.10;10.75;;;22.70;94.30;;;;;;6216080;23;20005;-75
2023/10/15 09:06:55;;;;;;;11.00;7.80;;;22.80;93.90;;;;;;6188763;23;20016;-75
2023/10/15 09:09:20;;;;;;;12.38;9.23;;;22.80;93.80;;;;;;6216357;23;20001;-75
2023/10/15 09:11:47;;;;;;;11.98;7.90;;;22.90;93.90;;;;;;6216198;23;20776;-75
2023/10/15 09:14:13;;;;;;;11.18;7.18;;;23.10;93.70;;;;;;6215940;23;20415;-75
2023/10/15 09:16:48;;;;;;;10.65;8.15;;;23.30;93.40;;;;;;6215952;23;20465;-75
2023/10/15 09:19:14;;;;;;;11.23;7.72;;;23.40;92.90;;;;;;6216176;23;20064;-74
2023/10/15 09:21:40;;;;;;;8.18;5.97;;;23.60;93.10;;;;;;6216933;23;20039;-75
2023/10/15 09:24:07;;;;;;;6.85;5.35;;;23.70;92.90;;;;;;6189448;23;20011;-75
2023/10/15 09:26:37;;;;;;;16.85;10.02;;;23.80;93.00;;;;;;6214768;23;20004;-75
2023/10/15 09:29:19;;;;;;;12.30;7.32;;;23.90;92.30;;;;;;6216216;23;20005;-75
2023/10/15 09:31:47;;;;;;;9.52;6.40;;;24.10;92.60;;;;;;6215930;23;20423;-75
2023/10/15 09:34:12;;;;;;;8.52;6.78;;;24.20;92.60;;;;;;6215833;23;20450;-75
2023/10/15 09:36:38;;;;;;;9.23;7.18;;;24.40;91.90;;;;;;6215097;23;20001;-74
2023/10/15 09:39:13;;;;;;;10.32;6.57;;;24.50;92.30;;;;;;6215935;23;20004;-75
2023/10/15 09:41:41;;;;;;;13.25;7.78;;;24.80;91.90;;;;;;6216159;23;20011;-75
2023/10/15 09:44:14;;;;;;;8.02;6.15;;;24.90;91.60;;;;;;6216418;23;20001;-74
2023/10/15 09:46:44;;;;;;;11.05;7.38;;;25.10;91.30;;;;;;6189195;23;20016;-75
2023/10/15 09:49:11;;;;;;;24.25;11.88;;;25.30;90.90;;;;;;6216118;23;20431;-75
2023/10/15 09:51:38;;;;;;;10.07;7.30;;;25.10;89.50;;;;;;6214585;23;20131;-76
2023/10/15 09:54:11;;;;;;;14.85;7.45;;;25.10;90.30;;;;;;6214075;23;19997;-74
2023/10/15 09:56:41;;;;;;;8.82;6.28;;;25.10;90.60;;;;;;6188530;23;20029;-75
2023/10/15 09:59:07;;;;;;;;;;;25.20;90.80;;;;;;6216166;23;20404;-75
2023/10/15 10:01:36;;;;;;;11.70;7.57;;;25.50;90.60;;;;;;6214924;23;20319;-75
2023/10/15 10:04:18;;;;;;;17.83;11.35;;;25.60;90.10;;;;;;6189387;23;20009;-81
2023/10/15 10:06:47;;;;;;;17.77;10.45;;;25.50;88.20;;;;;;6215361;23;20351;-80
2023/10/15 10:09:54;;;;;;;9.98;7.10;;;25.20;89.60;;;;;;6216064;23;20000;-81
2023/10/15 10:12:59;;;;;;;17.17;10.02;;;25.20;90.10;;;;;;6215668;23;20031;-81
2023/10/15 10:15:49;;;;;;;9.48;7.15;;;25.20;89.80;;;;;;6214648;23;20004;-81
2023/10/15 10:18:15;;;;;;;18.70;11.90;;;25.30;90.00;;;;;;6215951;23;19996;-81
2023/10/15 10:20:48;;;;;;;15.73;9.90;;;25.10;88.90;;;;;;6214915;23;20008;-81
2023/10/15 10:23:14;;;;;;;11.77;6.97;;;25.00;89.70;;;;;;6189754;23;20011;-81
2023/10/15 10:25:44;;;;;;;10.65;7.60;;;25.00;90.10;;;;;;6214567;23;20005;-81
2023/10/15 10:28:31;;;;;;;11.07;6.93;;;25.10;90.30;;;;;;6214988;23;20024;-80
2023/10/15 10:30:58;;;;;;;10.40;6.28;;;25.10;90.40;;;;;;6214339;23;19997;-81
2023/10/15 10:33:43;;;;;;;12.25;8.30;;;25.30;90.40;;;;;;6215255;23;19997;-81
2023/10/15 10:36:33;;;;;;;16.52;10.98;;;25.40;90.10;;;;;;6214105;23;20013;-81
2023/10/15 10:39:13;;;;;;;11.07;7.60;;;25.50;88.90;;;;;;6187303;23;20038;-82
2023/10/15 10:41:40;;;;;;;;;;;25.40;89.20;;;;;;6215304;23;20012;-81
2023/10/15 10:44:07;;;;;;;14.63;8.98;;;25.30;88.70;;;;;;6214726;23;20215;-82
2023/10/15 10:46:41;;;;;;;17.38;10.95;;;25.20;89.00;;;;;;6215035;23;20008;-82
2023/10/15 10:49:13;;;;;;;9.40;7.32;;;25.10;89.30;;;;;;6188028;23;20063;-82
2023/10/15 10:51:40;;;;;;;10.00;6.68;;;24.90;89.40;;;;;;6214087;23;20467;-82
2023/10/15 10:54:06;;;;;;;11.00;7.88;;;25.00;89.70;;;;;;6214182;23;20083;-82
2023/10/15 10:56:40;;;;;;;15.93;10.52;;;25.10;89.40;;;;;;6214489;23;20035;-81
2023/10/15 10:59:11;;;;;;;13.02;7.47;;;25.20;87.80;;;;;;6188102;23;20431;-83
2023/10/15 11:01:39;;;;;;;17.25;11.93;;;25.30;88.70;;;;;;6214188;23;20027;-83
2023/10/15 11:04:15;;;;;;;12.75;7.78;;;25.40;87.50;;;;;;6214987;23;20044;-82
2023/10/15 11:06:45;;;;;;;14.32;9.02;;;25.50;88.10;;;;;;6214953;23;20005;-75
2023/10/15 11:09:15;;;;;;;8.20;6.38;;;25.60;87.10;;;;;;6213361;23;20004;-75
2023/10/15 11:11:48;;;;;;;13.02;7.82;;;25.60;87.20;;;;;;6188417;23;20304;-75
2023/10/15 11:14:14;;;;;;;12.02;7.28;;;25.70;87.00;;;;;;6188028;23;20001;-82
2023/10/15 11:16:45;;;;;;;10.80;7.00;;;25.80;86.80;;;;;;6214246;23;20004;-83
2023/10/15 11:19:18;;;;;;;10.52;6.15;;;25.80;86.60;;;;;;6214571;23;20000;-82
2023/10/15 11:21:45;;;;;;;8.30;5.47;;;25.70;86.70;;;;;;6215005;23;20007;-82
2023/10/15 11:24:12;;;;;;;7.50;5.88;;;25.70;87.30;;;;;;6186529;23;20095;-82
2023/10/15 11:26:42;;;;;;;8.95;4.78;;;25.60;87.40;;;;;;6211794;23;20013;-84
2023/10/15 11:29:18;;;;;;;3.85;2.15;;;25.50;86.50;;;;;;6214137;23;20000;-82
2023/10/15 11:31:47;;;;;;;2.72;1.70;;;25.40;85.40;;;;;;6211822;23;20001;-83
2023/10/15 11:34:14;;;;;;;1.85;1.20;;;25.20;84.00;;;;;;6212021;23;20487;-84
2023/10/15 11:36:43;;;;;;;1.73;0.90;;;25.10;84.10;;;;;;6186317;23;20499;-82
2023/10/15 11:39:18;;;;;;;1.23;1.00;;;25.10;83.80;;;;;;6213230;23;20083;-83
2023/10/15 11:41:50;;;;;;;3.60;1.20;;;24.90;81.80;;;;;;6213837;23;20035;-82
2023/10/15 11:44:17;;;;;;;2.15;0.73;;;24.80;80.70;;;;;;6212415;23;20001;-81
2023/10/15 11:46:46;;;;;;;2.60;0.60;;;24.70;82.40;;;;;;6211056;23;20009;-84
2023/10/15 11:49:12;;;;;;;5.85;0.75;;;24.60;81.50;;;;;;6215505;23;20415;-82
2023/10/15 11:51:39;;;;;;;2.47;0.55;;;24.40;81.40;;;;;;6215340;23;20008;-84
2023/10/15 11:54:09;;;;;;;2.65;0.60;;;24.30;81.30;;;;;;6216345;23;19997;-82
2023/10/15 11:56:37;;;;;;;2.90;0.80;;;24.20;80.90;;;;;;6215609;23;20000;-83
2023/10/15 11:59:03;;;;;;;5.35;0.82;;;24.10;81.40;;;;;;6219570;22;20027;-83
2023/10/15 12:01:30;;;;;;;6.95;1.33;;;24.10;81.90;;;;;;6244954;23;20028;-83
2023/10/15 12:03:56;;;;;;;3.33;0.70;;;24.00;82.30;;;;;;6247156;23;20446;-83
2023/10/15 12:06:22;;;;;;;4.80;0.80;;;24.00;82.70;;;;;;6246175;23;20004;-82
2023/10/15 12:08:48;;;;;;;1.83;0.82;;;23.90;83.10;;;;;;6220186;23;20677;-82
2023/10/15 12:11:18;;;;;;;1.98;0.90;;;23.80;82.30;;;;;;6247569;23;20126;-81
2023/10/15 12:13:44;;;;;;;4.88;0.60;;;23.70;82.70;;;;;;6220017;23;20430;-84
2023/10/15 12:16:14;;;;;;;1.35;0.47;;;23.60;82.80;;;;;;6247315;23;20014;-86
2023/10/15 12:18:40;;;;;;;2.00;0.57;;;23.40;83.40;;;;;;6246631;23;20012;-86
2023/10/15 12:21:06;;;;;;;1.52;0.57;;;23.40;83.60;;;;;;6247157;23;20066;-84
2023/10/15 12:23:32;;;;;;;2.05;0.43;;;23.20;84.50;;;;;;6247137;23;20004;-86
2023/10/15 12:26:00;;;;;;;3.28;0.47;;;23.00;83.90;;;;;;6219277;23;20069;-86
2023/10/15 12:28:26;;;;;;;5.30;0.57;;;22.80;83.70;;;;;;6246481;23;20000;-86
2023/10/15 12:30:53;;;;;;;4.47;0.45;;;22.80;83.20;;;;;;6246197;23;20053;-85
2023/10/15 12:33:19;;;;;;;1.15;0.40;;;22.70;83.50;;;;;;6220354;23;20008;-84
2023/10/15 12:35:47;;;;;;;0.50;0.20;;;22.70;82.90;;;;;;6246507;23;20430;-87
2023/10/15 12:38:16;;;;;;;2.38;0.30;;;22.60;82.00;;;;;;6246617;23;20004;-83
2023/10/15 12:40:45;;;;;;;0.32;0.20;;;22.60;81.90;;;;;;6244581;23;20008;-84
2023/10/15 12:43:15;;;;;;;1.75;0.63;;;22.50;81.80;;;;;;6219640;23;20008;-81
2023/10/15 12:45:46;;;;;;;3.42;0.50;;;22.40;81.70;;;;;;6218835;23;20146;-81
2023/10/15 12:48:11;;;;;;;2.42;0.28;;;22.40;81.30;;;;;;6246447;23;20003;-81
2023/10/15 12:50:38;;;;;;;0.22;0.17;;;22.40;80.70;;;;;;6246474;23;20001;-82